createdAt,value
2023-01-04T00:01:24.185Z,77.11
2023-01-04T00:03:52.688Z,77.21
2023-01-04T00:06:21.294Z,77.95
2023-01-04T00:08:49.483Z,77.72
2023-01-04T00:11:19.701Z,78.14
2023-01-04T00:13:48.419Z,77.99
2023-01-04T00:16:18.807Z,78.18
2023-01-04T00:18:48.870Z,78.34
2023-01-04T00:21:18.255Z,77.97
2023-01-04T00:23:47.411Z,78.06
2023-01-04T00:26:17.674Z,78.27
2023-01-04T00:28:53.737Z,78.08
2023-01-04T00:31:23.009Z,79.44
2023-01-04T00:33:54.298Z,79.38
2023-01-04T00:36:22.916Z,80.01
2023-01-04T00:39:07.681Z,80.27
2023-01-04T00:44:26.332Z,81.87
2023-01-04T00:46:54.590Z,81.70
2023-01-04T00:49:24.294Z,82.12
2023-01-04T00:51:52.254Z,81.97
2023-01-04T00:54:20.508Z,81.88
2023-01-04T00:56:48.900Z,82.34
2023-01-04T00:59:19.316Z,82.42
2023-01-04T01:01:47.655Z,83.31
2023-01-04T01:04:18.165Z,83.69
2023-01-04T01:06:48.222Z,83.05
2023-01-04T01:09:17.223Z,83.10
2023-01-04T01:11:45.373Z,82.90
2023-01-04T01:14:17.581Z,83.16
2023-01-04T01:16:54.865Z,83.13
2023-01-04T01:19:24.137Z,83.69
2023-01-04T01:21:54.505Z,84.04
2023-01-04T01:24:22.525Z,84.42
2023-01-04T01:26:50.514Z,84.47
2023-01-04T01:29:18.589Z,84.41
2023-01-04T01:31:46.503Z,84.51
2023-01-04T01:34:14.893Z,84.56
2023-01-04T01:36:44.350Z,85.31
2023-01-04T01:39:14.071Z,85.33
2023-01-04T01:41:43.049Z,85.12
2023-01-04T01:44:45.297Z,85.30
2023-01-04T01:47:15.985Z,85.36
2023-01-04T01:49:45.694Z,85.93
2023-01-04T01:52:19.659Z,85.86
2023-01-04T01:54:55.075Z,86.41
2023-01-04T01:57:27.188Z,87.57
2023-01-04T01:59:59.125Z,87.39
2023-01-04T02:02:27.348Z,87.53
2023-01-04T02:04:56.693Z,87.43
2023-01-04T02:07:28.370Z,87.45
2023-01-04T02:09:59.324Z,87.45
2023-01-04T02:12:27.415Z,87.86
2023-01-04T02:14:55.301Z,88.39
2023-01-04T02:17:33.655Z,88.47
2023-01-04T02:20:26.922Z,89.04
2023-01-04T02:23:36.989Z,89.11
2023-01-04T02:26:37.658Z,88.58
2023-01-04T02:29:32.815Z,89.10
2023-01-04T02:32:04.750Z,88.56
2023-01-04T02:34:42.359Z,88.59
2023-01-04T02:37:19.716Z,88.55
2023-01-04T02:39:54.020Z,89.08
2023-01-04T02:42:50.156Z,89.09
2023-01-04T02:45:20.491Z,89.34
2023-01-04T02:48:07.613Z,89.45
2023-01-04T02:50:41.438Z,89.39
2023-01-04T02:53:13.134Z,89.34
2023-01-04T02:55:49.448Z,89.50
2023-01-04T02:58:32.786Z,89.59
2023-01-04T03:01:24.751Z,89.35
2023-01-04T03:04:24.765Z,89.64
2023-01-04T03:07:00.852Z,90.16
2023-01-04T03:09:32.882Z,90.40
2023-01-04T03:12:23.554Z,90.40
2023-01-04T03:14:53.414Z,89.71
2023-01-04T03:17:24.641Z,90.01
2023-01-04T03:19:56.159Z,89.58
2023-01-04T03:22:51.668Z,89.84
2023-01-04T03:25:42.372Z,89.79
2023-01-04T03:28:32.068Z,90.34
2023-01-04T03:31:23.035Z,90.42
2023-01-04T03:34:08.650Z,90.49
2023-01-04T03:36:47.190Z,90.09
2023-01-04T03:39:40.304Z,90.29
2023-01-04T03:42:32.991Z,90.26
2023-01-04T03:45:31.983Z,89.77
2023-01-04T03:48:26.881Z,90.05
2023-01-04T03:51:01.516Z,89.73
2023-01-04T03:53:32.397Z,90.05
2023-01-04T03:56:01.642Z,90.42
2023-01-04T03:58:29.729Z,90.39
2023-01-04T04:01:03.374Z,90.67
2023-01-04T04:03:49.743Z,90.80
2023-01-04T04:06:35.853Z,91.02
2023-01-04T04:09:05.687Z,91.11
2023-01-04T04:11:33.585Z,91.23
2023-01-04T04:14:02.096Z,90.98
2023-01-04T04:16:30.210Z,91.19
2023-01-04T04:19:01.840Z,91.40
2023-01-04T04:21:32.594Z,92.01
2023-01-04T04:24:00.468Z,92.10
2023-01-04T04:26:29.701Z,91.85
2023-01-04T04:28:57.813Z,91.81
2023-01-04T04:31:25.759Z,91.88
2023-01-04T04:33:53.889Z,91.61
2023-01-04T04:36:21.953Z,91.23
2023-01-04T04:38:49.820Z,91.17
2023-01-04T04:41:35.373Z,91.26
2023-01-04T04:44:04.936Z,91.21
2023-01-04T04:46:32.823Z,91.72
2023-01-04T04:49:00.796Z,92.14
2023-01-04T04:51:28.859Z,92.20
2023-01-04T04:53:56.965Z,92.19
2023-01-04T04:56:24.868Z,91.80
2023-01-04T04:58:52.777Z,92.10
2023-01-04T05:01:22.305Z,92.35
2023-01-04T05:03:50.520Z,92.40
2023-01-04T05:06:18.425Z,92.10
2023-01-04T05:08:46.391Z,92.37
2023-01-04T05:11:15.052Z,92.53
2023-01-04T05:13:42.127Z,92.57
2023-01-04T05:16:11.267Z,92.08
2023-01-04T05:18:40.632Z,92.04
2023-01-04T05:21:08.527Z,91.40
2023-01-04T05:23:36.467Z,91.87
2023-01-04T05:26:05.000Z,91.70
2023-01-04T05:28:33.091Z,92.30
2023-01-04T05:31:00.273Z,92.10
2023-01-04T05:33:30.365Z,91.49
2023-01-04T05:36:01.976Z,91.36
2023-01-04T05:38:30.411Z,91.50
2023-01-04T05:40:58.458Z,92.21
2023-01-04T05:43:26.572Z,92.02
2023-01-04T05:45:56.254Z,91.33
2023-01-04T05:48:26.059Z,91.59
2023-01-04T05:50:54.824Z,91.74
2023-01-04T05:53:24.041Z,91.97
2023-01-04T05:55:52.173Z,92.23
2023-01-04T05:58:20.058Z,92.92
2023-01-04T06:00:48.051Z,92.65
2023-01-04T06:03:16.349Z,92.48
2023-01-04T06:05:44.429Z,92.35
2023-01-04T06:08:12.322Z,92.68
2023-01-04T06:10:41.824Z,92.86
2023-01-04T06:13:09.914Z,92.48
2023-01-04T06:15:43.039Z,92.69
2023-01-04T06:18:13.882Z,92.28
2023-01-04T06:20:44.493Z,92.05
2023-01-04T06:23:12.458Z,92.04
2023-01-04T06:25:41.958Z,92.03
2023-01-04T06:28:10.031Z,92.33
2023-01-04T06:30:38.266Z,92.17
2023-01-04T06:33:06.566Z,92.28
2023-01-04T06:35:36.018Z,92.14
2023-01-04T06:38:04.134Z,92.02
2023-01-04T06:40:32.336Z,92.02
2023-01-04T06:43:01.636Z,92.04
2023-01-04T06:45:29.618Z,91.73
2023-01-04T06:47:57.589Z,92.10
2023-01-04T06:50:25.781Z,92.13
2023-01-04T06:52:53.799Z,91.68
2023-01-04T06:55:22.015Z,91.81
2023-01-04T06:57:52.893Z,92.26
2023-01-04T07:00:24.791Z,91.86
2023-01-04T07:03:14.598Z,91.57
2023-01-04T07:05:41.225Z,91.29
2023-01-04T07:08:09.425Z,91.43
2023-01-04T07:10:37.754Z,91.10
2023-01-04T07:13:06.390Z,91.75
2023-01-04T07:15:38.292Z,92.43
2023-01-04T07:18:08.521Z,92.68
2023-01-04T07:20:36.761Z,92.74
2023-01-04T07:23:05.623Z,92.78
2023-01-04T07:25:33.639Z,93.06
2023-01-04T07:28:01.788Z,93.06
2023-01-04T07:30:29.958Z,93.34
2023-01-04T07:32:59.340Z,92.81
2023-01-04T07:35:27.958Z,93.08
2023-01-04T07:37:58.941Z,93.40
2023-01-04T07:40:28.024Z,93.17
2023-01-04T07:42:58.218Z,92.96
2023-01-04T07:45:27.600Z,93.29
2023-01-04T07:47:55.938Z,93.24
2023-01-04T07:50:25.419Z,93.54
2023-01-04T07:52:53.435Z,93.26
2023-01-04T07:55:21.765Z,93.32
2023-01-04T07:57:49.797Z,93.32
2023-01-04T08:00:18.592Z,93.34
2023-01-04T08:02:46.877Z,92.99
2023-01-04T08:05:15.339Z,92.71
2023-01-04T08:07:45.091Z,92.75
2023-01-04T08:10:13.099Z,93.23
2023-01-04T08:12:41.057Z,93.46
2023-01-04T08:15:09.766Z,93.39
2023-01-04T08:17:37.805Z,93.19
2023-01-04T08:20:07.570Z,92.67
2023-01-04T08:22:35.477Z,92.96
2023-01-04T08:25:07.278Z,92.90
2023-01-04T08:27:35.285Z,93.08
2023-01-04T08:30:03.584Z,93.16
2023-01-04T08:32:31.854Z,92.56
2023-01-04T08:34:59.950Z,92.56
2023-01-04T08:37:28.434Z,93.08
2023-01-04T08:39:56.683Z,93.20
2023-01-04T08:42:31.011Z,92.49
2023-01-04T08:45:01.540Z,92.87
2023-01-04T08:47:32.237Z,93.68
2023-01-04T08:50:06.369Z,93.60
2023-01-04T08:52:38.153Z,93.31
2023-01-04T08:55:12.577Z,93.11
2023-01-04T08:57:43.001Z,93.40
2023-01-04T09:00:12.324Z,93.96
2023-01-04T09:02:40.667Z,93.99
2023-01-04T09:05:09.429Z,94.31
2023-01-04T09:07:37.344Z,93.92
2023-01-04T09:10:06.242Z,94.33
2023-01-04T09:12:34.402Z,94.84
2023-01-04T09:15:04.706Z,94.69
2023-01-04T09:17:32.761Z,94.48
2023-01-04T09:20:00.796Z,94.63
2023-01-04T09:22:28.764Z,94.26
2023-01-04T09:24:56.776Z,94.30
2023-01-04T09:27:25.627Z,94.31
2023-01-04T09:29:54.703Z,93.99
2023-01-04T09:32:24.153Z,93.85
2023-01-04T09:34:52.335Z,93.50
2023-01-04T09:37:21.483Z,93.47
2023-01-04T09:39:49.765Z,93.60
2023-01-04T09:42:23.642Z,94.03
2023-01-04T09:45:22.637Z,93.62
2023-01-04T09:47:47.267Z,92.98
2023-01-04T09:50:19.825Z,93.35
2023-01-04T09:52:58.932Z,92.90
2023-01-04T09:55:39.629Z,92.79
2023-01-04T09:58:17.910Z,92.80
2023-01-04T10:00:50.434Z,92.54
2023-01-04T10:03:25.042Z,92.36
2023-01-04T10:05:55.835Z,92.21
2023-01-04T10:08:24.419Z,91.74
2023-01-04T10:11:03.592Z,91.40
2023-01-04T10:13:48.044Z,91.34
2023-01-04T10:17:01.063Z,91.27
2023-01-04T10:22:26.280Z,91.46
2023-01-04T10:25:07.198Z,90.93
2023-01-04T10:27:44.093Z,90.21
2023-01-04T10:30:31.202Z,90.04
2023-01-04T10:33:11.159Z,90.23
2023-01-04T10:35:43.582Z,89.74
2023-01-04T10:38:18.061Z,89.68
2023-01-04T10:40:48.697Z,89.27
2023-01-04T10:43:23.646Z,89.03
2023-01-04T10:46:01.095Z,89.21
2023-01-04T10:48:40.306Z,89.82
2023-01-04T10:51:10.778Z,89.33
2023-01-04T10:53:45.862Z,89.32
2023-01-04T10:56:24.125Z,89.14
2023-01-04T10:59:04.392Z,88.64
2023-01-04T11:01:36.979Z,87.88
2023-01-04T11:04:12.965Z,87.57
2023-01-04T11:06:47.965Z,87.79
2023-01-04T11:09:25.084Z,87.61
2023-01-04T11:11:57.684Z,87.50
2023-01-04T11:14:27.714Z,86.98
2023-01-04T11:17:02.362Z,87.20
2023-01-04T11:19:31.078Z,87.09
2023-01-04T11:22:06.106Z,87.18
2023-01-04T11:24:35.524Z,86.38
2023-01-04T11:27:08.899Z,85.81
2023-01-04T11:29:42.660Z,85.46
2023-01-04T11:32:20.826Z,85.79
2023-01-04T11:34:52.101Z,85.58
2023-01-04T11:37:29.808Z,85.29
2023-01-04T11:40:21.151Z,84.91
2023-01-04T11:42:51.515Z,85.99
2023-01-04T11:45:23.885Z,85.88
2023-01-04T11:47:54.693Z,86.32
2023-01-04T11:50:40.668Z,86.85
2023-01-04T11:53:27.470Z,87.09
2023-01-04T11:56:17.043Z,87.11
2023-01-04T11:59:02.141Z,87.32
2023-01-04T12:01:30.563Z,87.16
2023-01-04T12:04:00.127Z,87.56
2023-01-04T12:06:37.624Z,87.57
2023-01-04T12:09:07.451Z,86.83
2023-01-04T12:11:38.517Z,86.71
2023-01-04T12:14:20.904Z,86.11
2023-01-04T12:16:54.850Z,85.31
2023-01-04T12:19:23.486Z,85.13
2023-01-04T12:21:54.457Z,85.28
2023-01-04T12:24:27.307Z,85.26
2023-01-04T12:26:56.075Z,85.17
2023-01-04T12:29:47.056Z,84.79
2023-01-04T12:32:46.473Z,84.37
2023-01-04T12:36:03.119Z,84.36
2023-01-04T12:39:00.443Z,84.28
2023-01-04T12:42:17.927Z,84.23
2023-01-04T12:45:03.524Z,84.67
2023-01-04T12:47:59.897Z,84.71
2023-01-04T12:50:31.012Z,84.60
2023-01-04T12:53:29.047Z,84.48
2023-01-04T12:55:54.296Z,83.97
2023-01-04T12:59:15.328Z,84.12
2023-01-04T13:01:32.009Z,84.04
2023-01-04T13:04:05.547Z,84.22
2023-01-04T13:06:43.950Z,83.75
2023-01-04T13:09:24.511Z,83.27
2023-01-04T13:12:09.397Z,83.46
2023-01-04T13:14:41.522Z,83.85
2023-01-04T13:17:19.129Z,83.83
2023-01-04T13:19:48.483Z,83.20
2023-01-04T13:22:29.553Z,82.45
2023-01-04T13:25:00.154Z,82.89
2023-01-04T13:27:28.827Z,82.79
2023-01-04T13:29:56.732Z,83.54
2023-01-04T13:32:28.806Z,83.40
2023-01-04T13:34:59.741Z,83.19
2023-01-04T13:37:31.141Z,83.52
2023-01-04T13:40:17.900Z,83.47
2023-01-04T13:42:49.045Z,82.78
2023-01-04T13:45:32.667Z,81.84
2023-01-04T13:48:06.220Z,81.88
2023-01-04T13:50:37.868Z,82.03
2023-01-04T13:53:08.487Z,81.91
2023-01-04T13:55:39.045Z,82.21
2023-01-04T13:58:16.887Z,81.97
2023-01-04T14:00:47.570Z,81.44
2023-01-04T14:03:34.170Z,81.02
2023-01-04T14:06:18.925Z,80.77
2023-01-04T14:08:54.553Z,80.53
2023-01-04T14:11:43.315Z,80.50
2023-01-04T14:14:30.775Z,80.23
2023-01-04T14:17:17.754Z,79.80
2023-01-04T14:19:49.914Z,80.28
2023-01-04T14:22:29.191Z,79.98
2023-01-04T14:25:15.311Z,80.08
2023-01-04T14:27:44.022Z,79.91
2023-01-04T14:30:25.355Z,79.60
2023-01-04T14:32:58.838Z,79.45
2023-01-04T14:35:30.396Z,79.54
2023-01-04T14:38:04.645Z,78.67
2023-01-04T14:40:34.231Z,78.48
2023-01-04T14:43:02.889Z,78.52
2023-01-04T14:45:31.813Z,78.55
2023-01-04T14:47:59.999Z,78.25
2023-01-04T14:50:29.604Z,78.78
2023-01-04T14:52:57.859Z,78.48
2023-01-04T14:55:25.985Z,79.02
2023-01-04T14:57:53.899Z,78.89
2023-01-04T15:00:21.807Z,78.56
2023-01-04T15:02:51.881Z,78.76
2023-01-04T15:05:20.769Z,78.73
2023-01-04T15:07:50.609Z,78.01
2023-01-04T15:10:23.943Z,78.27
2023-01-04T15:12:52.161Z,78.10
2023-01-04T15:15:20.932Z,78.08
2023-01-04T15:17:49.255Z,78.08
2023-01-04T15:20:17.396Z,78.78
2023-01-04T15:22:45.929Z,79.28
2023-01-04T15:25:15.460Z,79.37
2023-01-04T15:27:43.540Z,80.01
2023-01-04T15:30:12.528Z,80.03
2023-01-04T15:32:41.063Z,80.38
2023-01-04T15:35:09.540Z,80.84
2023-01-04T15:37:37.733Z,80.42
2023-01-04T15:40:06.887Z,80.26
2023-01-04T15:42:53.844Z,80.01
2023-01-04T15:45:23.809Z,80.35
2023-01-04T15:47:52.947Z,80.52
2023-01-04T15:50:21.495Z,80.71
2023-01-04T15:52:49.547Z,80.25
2023-01-04T15:55:17.805Z,80.36
2023-01-04T15:57:47.210Z,80.07
2023-01-04T16:00:16.351Z,80.34
2023-01-04T16:02:44.631Z,79.75
2023-01-04T16:05:12.910Z,79.50
2023-01-04T16:07:40.854Z,78.80
2023-01-04T16:10:09.614Z,78.45
2023-01-04T16:12:44.469Z,78.89
2023-01-04T16:15:16.032Z,79.32
2023-01-04T16:17:45.598Z,80.07
2023-01-04T16:20:15.195Z,79.82
2023-01-04T16:22:43.697Z,79.38
2023-01-04T16:25:12.884Z,79.36
2023-01-04T16:27:41.194Z,79.21
2023-01-04T16:30:13.657Z,79.54
2023-01-04T16:32:44.512Z,80.14
2023-01-04T16:35:13.380Z,80.06
2023-01-04T16:37:43.036Z,79.30
2023-01-04T16:40:12.332Z,79.08
2023-01-04T16:42:40.571Z,79.43
2023-01-04T16:45:10.056Z,80.78
2023-01-04T16:47:40.672Z,81.02
2023-01-04T16:50:10.829Z,81.36
2023-01-04T16:52:39.179Z,81.40
2023-01-04T16:55:08.471Z,81.37
2023-01-04T16:57:36.616Z,81.25
2023-01-04T17:00:06.109Z,80.98
2023-01-04T17:02:34.080Z,80.77
2023-01-04T17:05:02.238Z,80.94
2023-01-04T17:07:33.134Z,81.81
2023-01-04T17:10:01.829Z,82.63
2023-01-04T17:12:47.476Z,82.58
2023-01-04T17:18:04.310Z,82.50
2023-01-04T17:20:32.256Z,82.64
2023-01-04T17:23:01.898Z,82.90
2023-01-04T17:25:30.252Z,83.14
2023-01-04T17:27:58.378Z,83.17
2023-01-04T17:30:26.484Z,83.35
2023-01-04T17:32:54.663Z,82.87
2023-01-04T17:35:22.601Z,82.97
2023-01-04T17:37:50.789Z,83.40
2023-01-04T17:40:23.212Z,83.64
2023-01-04T17:42:51.870Z,83.50
2023-01-04T17:45:20.434Z,83.96
2023-01-04T17:47:48.595Z,83.64
2023-01-04T17:50:18.270Z,83.48
2023-01-04T17:52:47.605Z,83.08
2023-01-04T17:55:16.119Z,83.28
2023-01-04T17:57:45.831Z,83.47
2023-01-04T18:00:14.966Z,83.31
2023-01-04T18:02:43.727Z,83.41
2023-01-04T18:05:11.980Z,83.03
2023-01-04T18:07:39.944Z,84.19
2023-01-04T18:10:20.764Z,84.01
2023-01-04T18:12:56.358Z,83.96
2023-01-04T18:15:24.457Z,83.18
2023-01-04T18:17:52.391Z,82.92
2023-01-04T18:20:25.157Z,82.75
2023-01-04T18:22:53.236Z,82.84
2023-01-04T18:25:21.053Z,81.92
2023-01-04T18:27:48.981Z,81.62
2023-01-04T18:30:18.995Z,81.31
2023-01-04T18:32:46.894Z,81.21
2023-01-04T18:35:15.028Z,81.22
2023-01-04T18:37:45.140Z,80.67
2023-01-04T18:40:13.659Z,79.92
2023-01-04T18:42:41.831Z,79.47
2023-01-04T18:45:10.305Z,78.46
2023-01-04T18:47:39.662Z,78.14
2023-01-04T18:50:08.196Z,77.70
2023-01-04T18:52:37.142Z,77.15
2023-01-04T18:55:06.353Z,77.06
2023-01-04T18:57:34.345Z,77.71
2023-01-04T19:00:04.288Z,77.27
2023-01-04T19:02:32.568Z,77.85
2023-01-04T19:05:02.186Z,78.48
2023-01-04T19:07:30.186Z,79.13
2023-01-04T19:09:58.107Z,78.92
2023-01-04T19:12:26.295Z,79.09
2023-01-04T19:14:54.196Z,78.11
2023-01-04T19:17:24.601Z,78.33
2023-01-04T19:19:52.881Z,78.54
2023-01-04T19:22:22.132Z,77.92
2023-01-04T19:24:50.180Z,78.33
2023-01-04T19:27:19.435Z,79.07
2023-01-04T19:29:47.502Z,79.01
2023-01-04T19:32:19.228Z,78.78
2023-01-04T19:34:47.135Z,79.08
2023-01-04T19:37:14.994Z,79.99
2023-01-04T19:39:44.248Z,80.11
2023-01-04T19:42:12.312Z,79.86
2023-01-04T19:44:40.261Z,79.97
2023-01-04T19:47:08.194Z,80.72
2023-01-04T19:49:36.148Z,80.54
2023-01-04T19:52:04.236Z,80.56
2023-01-04T19:54:32.409Z,80.52
2023-01-04T19:57:01.807Z,80.37
2023-01-04T19:59:30.272Z,80.86
2023-01-04T20:01:58.822Z,80.92
2023-01-04T20:04:27.752Z,81.28
2023-01-04T20:06:55.948Z,81.28
2023-01-04T20:09:27.547Z,80.77
2023-01-04T20:11:55.659Z,81.28
2023-01-04T20:14:25.011Z,81.45
2023-01-04T20:16:53.223Z,80.98
2023-01-04T20:19:21.649Z,80.86
2023-01-04T20:21:49.776Z,80.55
2023-01-04T20:24:17.849Z,80.73
2023-01-04T20:26:46.707Z,80.47
2023-01-04T20:29:14.808Z,80.96
2023-01-04T20:31:45.942Z,80.95
2023-01-04T20:34:14.830Z,81.02
2023-01-04T20:36:43.093Z,81.26
2023-01-04T20:39:11.227Z,81.15
2023-01-04T20:41:59.811Z,81.31
2023-01-04T20:44:27.033Z,81.40
2023-01-04T20:46:56.779Z,81.25
2023-01-04T20:49:25.037Z,81.05
2023-01-04T20:51:53.051Z,81.00
2023-01-04T20:54:21.183Z,81.89
2023-01-04T20:56:49.427Z,81.88
2023-01-04T20:59:17.921Z,81.69
2023-01-04T21:01:45.968Z,81.41
2023-01-04T21:04:17.932Z,80.72
2023-01-04T21:06:45.974Z,80.44
2023-01-04T21:09:14.366Z,80.66
2023-01-04T21:11:45.688Z,80.15
2023-01-04T21:14:14.511Z,80.63
2023-01-04T21:16:42.651Z,80.93
2023-01-04T21:19:10.984Z,80.55
2023-01-04T21:21:40.689Z,81.53
2023-01-04T21:24:09.915Z,81.67
2023-01-04T21:26:38.242Z,81.48
2023-01-04T21:29:08.148Z,81.72
2023-01-04T21:31:36.323Z,81.68
2023-01-04T21:34:12.860Z,81.47
2023-01-04T21:36:43.952Z,81.06
2023-01-04T21:39:12.009Z,80.79
2023-01-04T21:41:46.015Z,80.25
2023-01-04T21:44:16.452Z,79.64
2023-01-04T21:46:44.483Z,79.66
2023-01-04T21:49:13.441Z,79.72
2023-01-04T21:51:41.417Z,79.96
2023-01-04T21:54:10.820Z,80.08
2023-01-04T21:56:39.495Z,79.96
2023-01-04T21:59:07.534Z,80.35
2023-01-04T22:01:36.003Z,80.59
2023-01-04T22:04:05.600Z,80.56
2023-01-04T22:06:37.562Z,81.24
2023-01-04T22:09:07.131Z,80.97
2023-01-04T22:11:37.469Z,81.48
2023-01-04T22:14:06.136Z,81.74
2023-01-04T22:16:34.440Z,80.54
2023-01-04T22:19:02.652Z,79.59
2023-01-04T22:21:30.963Z,79.84
2023-01-04T22:23:59.203Z,79.28
2023-01-04T22:26:27.689Z,79.74
2023-01-04T22:28:57.629Z,79.71
2023-01-04T22:31:25.570Z,79.89
2023-01-04T22:33:53.695Z,79.92
2023-01-04T22:36:23.605Z,80.24
2023-01-04T22:38:52.613Z,80.76
2023-01-04T22:41:22.247Z,81.19
2023-01-04T22:43:56.607Z,82.21
2023-01-04T22:46:27.837Z,82.11
2023-01-04T22:48:56.713Z,81.37
2023-01-04T22:51:27.491Z,81.25
2023-01-04T22:53:56.633Z,81.78
2023-01-04T22:56:25.522Z,82.12
2023-01-04T22:58:55.571Z,81.83
2023-01-04T23:01:26.486Z,82.21
2023-01-04T23:03:55.534Z,81.56
2023-01-04T23:06:25.240Z,81.87
2023-01-04T23:08:57.747Z,81.18
2023-01-04T23:11:26.584Z,81.31
2023-01-04T23:13:55.195Z,82.00
2023-01-04T23:16:31.990Z,82.45
2023-01-04T23:19:00.874Z,82.21
2023-01-04T23:21:28.995Z,82.27
2023-01-04T23:23:56.962Z,81.64
2023-01-04T23:26:26.368Z,81.91
2023-01-04T23:28:54.314Z,81.42
2023-01-04T23:31:26.298Z,83.05
2023-01-04T23:33:56.418Z,82.92
2023-01-04T23:36:26.155Z,83.04
2023-01-04T23:38:55.897Z,83.28
2023-01-04T23:41:44.177Z,83.09
2023-01-04T23:44:13.991Z,83.13
2023-01-04T23:46:44.136Z,83.71
2023-01-04T23:49:12.878Z,83.55
2023-01-04T23:51:42.468Z,82.69
2023-01-04T23:54:10.770Z,82.42
2023-01-04T23:56:39.309Z,82.25
2023-01-04T23:59:08.020Z,82.12
